sensor_id;sensor_type;location;lat;lon;timestamp;P1;durP1;ratioP1;P2;durP2;ratioP2
50417;SDS011;36346;48.280;14.292;2022-11-20T00:01:32;36.90;;;35.37;;
50417;SDS011;36346;48.280;14.292;2022-11-20T00:04:00;37.04;;;35.53;;
50417;SDS011;36346;48.280;14.292;2022-11-20T00:06:29;37.58;;;36.14;;
50417;SDS011;36346;48.280;14.292;2022-11-20T00:08:58;38.75;;;37.02;;
50417;SDS011;36346;48.280;14.292;2022-11-20T00:11:28;37.73;;;35.87;;
50417;SDS011;36346;48.280;14.292;2022-11-20T00:13:58;38.08;;;35.92;;
50417;SDS011;36346;48.280;14.292;2022-11-20T00:16:28;39.18;;;37.04;;
50417;SDS011;36346;48.280;14.292;2022-11-20T00:18:58;37.47;;;35.82;;
50417;SDS011;36346;48.280;14.292;2022-11-20T00:21:27;38.13;;;36.53;;
50417;SDS011;36346;48.280;14.292;2022-11-20T00:23:56;38.63;;;37.04;;
50417;SDS011;36346;48.280;14.292;2022-11-20T00:26:25;39.69;;;37.14;;
50417;SDS011;36346;48.280;14.292;2022-11-20T00:28:56;39.46;;;37.02;;
50417;SDS011;36346;48.280;14.292;2022-11-20T00:31:25;38.08;;;36.41;;
50417;SDS011;36346;48.280;14.292;2022-11-20T00:33:53;38.27;;;36.36;;
50417;SDS011;36346;48.280;14.292;2022-11-20T00:36:22;40.05;;;37.72;;
50417;SDS011;36346;48.280;14.292;2022-11-20T00:38:52;39.23;;;36.97;;
50417;SDS011;36346;48.280;14.292;2022-11-20T00:41:22;38.65;;;36.82;;
50417;SDS011;36346;48.280;14.292;2022-11-20T00:43:52;39.49;;;37.48;;
50417;SDS011;36346;48.280;14.292;2022-11-20T00:46:23;39.42;;;37.39;;
50417;SDS011;36346;48.280;14.292;2022-11-20T00:48:53;40.10;;;37.98;;
50417;SDS011;36346;48.280;14.292;2022-11-20T00:51:23;41.23;;;38.73;;
50417;SDS011;36346;48.280;14.292;2022-11-20T00:53:54;39.98;;;37.90;;
50417;SDS011;36346;48.280;14.292;2022-11-20T00:56:23;39.80;;;37.73;;
50417;SDS011;36346;48.280;14.292;2022-11-20T00:58:51;40.12;;;38.12;;
50417;SDS011;36346;48.280;14.292;2022-11-20T01:01:23;40.95;;;38.49;;
50417;SDS011;36346;48.280;14.292;2022-11-20T01:03:53;41.55;;;38.95;;
50417;SDS011;36346;48.280;14.292;2022-11-20T01:06:24;41.21;;;38.70;;
50417;SDS011;36346;48.280;14.292;2022-11-20T01:08:57;40.59;;;38.41;;
50417;SDS011;36346;48.280;14.292;2022-11-20T01:11:28;41.40;;;39.03;;
50417;SDS011;36346;48.280;14.292;2022-11-20T01:13:58;41.15;;;38.97;;
50417;SDS011;36346;48.280;14.292;2022-11-20T01:16:30;41.45;;;39.12;;
50417;SDS011;36346;48.280;14.292;2022-11-20T01:19:00;42.74;;;40.36;;
50417;SDS011;36346;48.280;14.292;2022-11-20T01:21:34;43.89;;;41.10;;
50417;SDS011;36346;48.280;14.292;2022-11-20T01:24:05;42.06;;;39.89;;
50417;SDS011;36346;48.280;14.292;2022-11-20T01:26:36;43.32;;;40.80;;
50417;SDS011;36346;48.280;14.292;2022-11-20T01:29:05;43.29;;;40.66;;
50417;SDS011;36346;48.280;14.292;2022-11-20T01:31:35;42.60;;;40.29;;
50417;SDS011;36346;48.280;14.292;2022-11-20T01:34:05;44.47;;;41.40;;
50417;SDS011;36346;48.280;14.292;2022-11-20T01:36:36;43.89;;;41.24;;
50417;SDS011;36346;48.280;14.292;2022-11-20T01:39:07;42.77;;;40.36;;
50417;SDS011;36346;48.280;14.292;2022-11-20T01:41:41;45.41;;;42.32;;
50417;SDS011;36346;48.280;14.292;2022-11-20T01:44:50;43.25;;;40.61;;
50417;SDS011;36346;48.280;14.292;2022-11-20T01:50:06;42.93;;;40.32;;
50417;SDS011;36346;48.280;14.292;2022-11-20T01:52:45;43.96;;;41.08;;
50417;SDS011;36346;48.280;14.292;2022-11-20T01:55:25;43.43;;;40.94;;
50417;SDS011;36346;48.280;14.292;2022-11-20T01:57:57;43.20;;;40.47;;
50417;SDS011;36346;48.280;14.292;2022-11-20T02:00:26;43.83;;;41.03;;
50417;SDS011;36346;48.280;14.292;2022-11-20T02:02:56;43.28;;;40.65;;
50417;SDS011;36346;48.280;14.292;2022-11-20T02:05:37;43.63;;;40.87;;
50417;SDS011;36346;48.280;14.292;2022-11-20T02:08:35;42.83;;;40.53;;
50417;SDS011;36346;48.280;14.292;2022-11-20T02:11:05;43.76;;;41.16;;
50417;SDS011;36346;48.280;14.292;2022-11-20T02:13:33;44.17;;;41.84;;
50417;SDS011;36346;48.280;14.292;2022-11-20T02:16:12;42.87;;;40.66;;
50417;SDS011;36346;48.280;14.292;2022-11-20T02:18:44;44.25;;;40.87;;
50417;SDS011;36346;48.280;14.292;2022-11-20T02:24:07;44.21;;;41.12;;
50417;SDS011;36346;48.280;14.292;2022-11-20T02:26:40;44.18;;;41.35;;
50417;SDS011;36346;48.280;14.292;2022-11-20T02:29:13;43.69;;;40.79;;
50417;SDS011;36346;48.280;14.292;2022-11-20T02:31:45;45.62;;;41.97;;
50417;SDS011;36346;48.280;14.292;2022-11-20T02:34:12;44.89;;;41.80;;
50417;SDS011;36346;48.280;14.292;2022-11-20T02:36:40;45.21;;;42.47;;
50417;SDS011;36346;48.280;14.292;2022-11-20T02:39:11;44.75;;;41.80;;
50417;SDS011;36346;48.280;14.292;2022-11-20T02:41:41;44.49;;;41.73;;
50417;SDS011;36346;48.280;14.292;2022-11-20T02:44:09;44.27;;;41.48;;
50417;SDS011;36346;48.280;14.292;2022-11-20T02:46:38;45.44;;;42.64;;
50417;SDS011;36346;48.280;14.292;2022-11-20T02:49:05;44.12;;;41.38;;
50417;SDS011;36346;48.280;14.292;2022-11-20T02:51:33;44.48;;;41.85;;
50417;SDS011;36346;48.280;14.292;2022-11-20T02:54:02;43.03;;;40.92;;
50417;SDS011;36346;48.280;14.292;2022-11-20T02:56:30;43.85;;;41.34;;
50417;SDS011;36346;48.280;14.292;2022-11-20T02:58:58;43.58;;;40.85;;
50417;SDS011;36346;48.280;14.292;2022-11-20T03:01:26;42.96;;;40.57;;
50417;SDS011;36346;48.280;14.292;2022-11-20T03:03:54;42.41;;;39.98;;
50417;SDS011;36346;48.280;14.292;2022-11-20T03:06:22;43.22;;;40.52;;
50417;SDS011;36346;48.280;14.292;2022-11-20T03:08:50;43.21;;;40.78;;
50417;SDS011;36346;48.280;14.292;2022-11-20T03:11:18;43.88;;;41.06;;
50417;SDS011;36346;48.280;14.292;2022-11-20T03:13:46;42.27;;;40.14;;
50417;SDS011;36346;48.280;14.292;2022-11-20T03:16:18;42.80;;;40.13;;
50417;SDS011;36346;48.280;14.292;2022-11-20T03:18:47;43.37;;;40.63;;
50417;SDS011;36346;48.280;14.292;2022-11-20T03:21:15;42.80;;;40.24;;
50417;SDS011;36346;48.280;14.292;2022-11-20T03:23:44;41.99;;;39.69;;
50417;SDS011;36346;48.280;14.292;2022-11-20T03:26:13;42.91;;;40.34;;
50417;SDS011;36346;48.280;14.292;2022-11-20T03:29:08;41.27;;;39.09;;
50417;SDS011;36346;48.280;14.292;2022-11-20T03:31:36;41.83;;;39.26;;
50417;SDS011;36346;48.280;14.292;2022-11-20T03:34:08;42.15;;;39.51;;
50417;SDS011;36346;48.280;14.292;2022-11-20T03:36:40;41.10;;;38.79;;
50417;SDS011;36346;48.280;14.292;2022-11-20T03:39:09;41.71;;;39.15;;
50417;SDS011;36346;48.280;14.292;2022-11-20T03:41:39;40.42;;;37.90;;
50417;SDS011;36346;48.280;14.292;2022-11-20T03:44:09;41.21;;;38.85;;
50417;SDS011;36346;48.280;14.292;2022-11-20T03:46:38;40.53;;;38.26;;
50417;SDS011;36346;48.280;14.292;2022-11-20T03:49:06;39.97;;;37.81;;
50417;SDS011;36346;48.280;14.292;2022-11-20T03:51:35;39.62;;;37.52;;
50417;SDS011;36346;48.280;14.292;2022-11-20T03:54:04;39.61;;;37.29;;
50417;SDS011;36346;48.280;14.292;2022-11-20T03:56:35;39.00;;;37.22;;
50417;SDS011;36346;48.280;14.292;2022-11-20T03:59:05;39.63;;;37.49;;
50417;SDS011;36346;48.280;14.292;2022-11-20T04:01:35;40.48;;;38.28;;
50417;SDS011;36346;48.280;14.292;2022-11-20T04:04:05;40.50;;;38.29;;
50417;SDS011;36346;48.280;14.292;2022-11-20T04:06:34;39.74;;;37.78;;
50417;SDS011;36346;48.280;14.292;2022-11-20T04:09:04;38.98;;;37.08;;
50417;SDS011;36346;48.280;14.292;2022-11-20T04:11:33;40.84;;;38.27;;
50417;SDS011;36346;48.280;14.292;2022-11-20T04:14:04;41.29;;;38.68;;
50417;SDS011;36346;48.280;14.292;2022-11-20T04:16:35;39.37;;;37.33;;
50417;SDS011;36346;48.280;14.292;2022-11-20T04:19:04;41.95;;;38.86;;
50417;SDS011;36346;48.280;14.292;2022-11-20T04:21:33;41.26;;;38.80;;
50417;SDS011;36346;48.280;14.292;2022-11-20T04:24:01;40.25;;;37.86;;
50417;SDS011;36346;48.280;14.292;2022-11-20T04:26:30;40.10;;;37.80;;
50417;SDS011;36346;48.280;14.292;2022-11-20T04:28:58;41.08;;;38.37;;
50417;SDS011;36346;48.280;14.292;2022-11-20T04:31:30;41.08;;;38.61;;
50417;SDS011;36346;48.280;14.292;2022-11-20T04:34:04;40.32;;;38.11;;
50417;SDS011;36346;48.280;14.292;2022-11-20T04:36:33;40.58;;;38.13;;
50417;SDS011;36346;48.280;14.292;2022-11-20T04:39:03;41.93;;;39.18;;
50417;SDS011;36346;48.280;14.292;2022-11-20T04:41:34;41.52;;;39.16;;
50417;SDS011;36346;48.280;14.292;2022-11-20T04:44:04;40.11;;;37.40;;
50417;SDS011;36346;48.280;14.292;2022-11-20T04:46:34;40.13;;;37.67;;
50417;SDS011;36346;48.280;14.292;2022-11-20T04:49:04;40.04;;;37.75;;
50417;SDS011;36346;48.280;14.292;2022-11-20T04:51:33;40.90;;;37.97;;
50417;SDS011;36346;48.280;14.292;2022-11-20T04:54:01;40.37;;;37.94;;
50417;SDS011;36346;48.280;14.292;2022-11-20T04:56:29;39.18;;;37.02;;
50417;SDS011;36346;48.280;14.292;2022-11-20T04:58:59;38.99;;;37.12;;
50417;SDS011;36346;48.280;14.292;2022-11-20T05:01:29;40.29;;;37.50;;
50417;SDS011;36346;48.280;14.292;2022-11-20T05:03:57;38.76;;;36.73;;
50417;SDS011;36346;48.280;14.292;2022-11-20T05:06:25;38.61;;;36.87;;
50417;SDS011;36346;48.280;14.292;2022-11-20T05:08:53;37.68;;;36.03;;
50417;SDS011;36346;48.280;14.292;2022-11-20T05:11:21;38.84;;;36.81;;
50417;SDS011;36346;48.280;14.292;2022-11-20T05:13:50;38.83;;;37.05;;
50417;SDS011;36346;48.280;14.292;2022-11-20T05:16:20;38.14;;;36.56;;
50417;SDS011;36346;48.280;14.292;2022-11-20T05:18:50;37.98;;;36.29;;
50417;SDS011;36346;48.280;14.292;2022-11-20T05:21:20;38.90;;;36.88;;
50417;SDS011;36346;48.280;14.292;2022-11-20T05:23:49;39.74;;;37.82;;
50417;SDS011;36346;48.280;14.292;2022-11-20T05:26:18;39.74;;;37.72;;
50417;SDS011;36346;48.280;14.292;2022-11-20T05:28:49;40.02;;;37.94;;
50417;SDS011;36346;48.280;14.292;2022-11-20T05:31:22;39.34;;;37.46;;
50417;SDS011;36346;48.280;14.292;2022-11-20T05:33:55;39.49;;;37.37;;
50417;SDS011;36346;48.280;14.292;2022-11-20T05:36:24;38.89;;;37.32;;
50417;SDS011;36346;48.280;14.292;2022-11-20T05:38:52;38.89;;;37.09;;
50417;SDS011;36346;48.280;14.292;2022-11-20T05:41:27;37.03;;;35.42;;
50417;SDS011;36346;48.280;14.292;2022-11-20T05:43:56;38.05;;;36.33;;
50417;SDS011;36346;48.280;14.292;2022-11-20T05:46:25;38.19;;;36.44;;
50417;SDS011;36346;48.280;14.292;2022-11-20T05:48:56;38.82;;;36.76;;
50417;SDS011;36346;48.280;14.292;2022-11-20T05:51:25;38.96;;;37.25;;
50417;SDS011;36346;48.280;14.292;2022-11-20T05:53:53;37.63;;;35.87;;
50417;SDS011;36346;48.280;14.292;2022-11-20T05:56:23;38.19;;;36.15;;
50417;SDS011;36346;48.280;14.292;2022-11-20T05:58:52;38.80;;;37.04;;
50417;SDS011;36346;48.280;14.292;2022-11-20T06:01:21;38.55;;;36.86;;
50417;SDS011;36346;48.280;14.292;2022-11-20T06:03:52;38.68;;;36.64;;
50417;SDS011;36346;48.280;14.292;2022-11-20T06:06:20;36.81;;;35.29;;
50417;SDS011;36346;48.280;14.292;2022-11-20T06:08:49;36.02;;;34.27;;
50417;SDS011;36346;48.280;14.292;2022-11-20T06:11:17;36.60;;;34.95;;
50417;SDS011;36346;48.280;14.292;2022-11-20T06:13:46;37.77;;;36.13;;
50417;SDS011;36346;48.280;14.292;2022-11-20T06:16:15;37.32;;;35.56;;
50417;SDS011;36346;48.280;14.292;2022-11-20T06:18:46;36.67;;;35.03;;
50417;SDS011;36346;48.280;14.292;2022-11-20T06:21:18;36.88;;;34.92;;
50417;SDS011;36346;48.280;14.292;2022-11-20T06:23:48;35.89;;;34.20;;
50417;SDS011;36346;48.280;14.292;2022-11-20T06:26:18;36.65;;;34.57;;
50417;SDS011;36346;48.280;14.292;2022-11-20T06:28:47;36.53;;;34.50;;
50417;SDS011;36346;48.280;14.292;2022-11-20T06:31:17;36.09;;;34.60;;
50417;SDS011;36346;48.280;14.292;2022-11-20T06:33:47;35.08;;;33.57;;
50417;SDS011;36346;48.280;14.292;2022-11-20T06:36:17;36.69;;;35.05;;
50417;SDS011;36346;48.280;14.292;2022-11-20T06:38:47;36.96;;;35.03;;
50417;SDS011;36346;48.280;14.292;2022-11-20T06:41:17;36.60;;;34.87;;
50417;SDS011;36346;48.280;14.292;2022-11-20T06:43:46;35.91;;;34.49;;
50417;SDS011;36346;48.280;14.292;2022-11-20T06:46:15;35.98;;;34.41;;
50417;SDS011;36346;48.280;14.292;2022-11-20T06:48:47;36.83;;;35.30;;
50417;SDS011;36346;48.280;14.292;2022-11-20T06:51:16;37.62;;;35.97;;
50417;SDS011;36346;48.280;14.292;2022-11-20T06:53:45;38.06;;;36.06;;
50417;SDS011;36346;48.280;14.292;2022-11-20T06:56:13;38.04;;;36.17;;
50417;SDS011;36346;48.280;14.292;2022-11-20T06:58:40;38.04;;;36.21;;
50417;SDS011;36346;48.280;14.292;2022-11-20T07:01:10;37.75;;;36.12;;
50417;SDS011;36346;48.280;14.292;2022-11-20T07:03:40;36.66;;;35.08;;
50417;SDS011;36346;48.280;14.292;2022-11-20T07:06:08;37.71;;;35.66;;
50417;SDS011;36346;48.280;14.292;2022-11-20T07:08:37;37.36;;;35.60;;
50417;SDS011;36346;48.280;14.292;2022-11-20T07:11:05;37.49;;;35.83;;
50417;SDS011;36346;48.280;14.292;2022-11-20T07:13:35;37.92;;;35.92;;
50417;SDS011;36346;48.280;14.292;2022-11-20T07:16:04;40.72;;;38.38;;
50417;SDS011;36346;48.280;14.292;2022-11-20T07:18:34;42.38;;;40.27;;
50417;SDS011;36346;48.280;14.292;2022-11-20T07:21:03;38.85;;;37.05;;
50417;SDS011;36346;48.280;14.292;2022-11-20T07:23:33;37.32;;;35.57;;
50417;SDS011;36346;48.280;14.292;2022-11-20T07:26:02;37.97;;;35.97;;
50417;SDS011;36346;48.280;14.292;2022-11-20T07:28:37;36.13;;;34.68;;
50417;SDS011;36346;48.280;14.292;2022-11-20T07:31:06;37.50;;;35.65;;
50417;SDS011;36346;48.280;14.292;2022-11-20T07:33:35;39.10;;;37.11;;
50417;SDS011;36346;48.280;14.292;2022-11-20T07:36:03;36.49;;;35.09;;
50417;SDS011;36346;48.280;14.292;2022-11-20T07:38:31;38.40;;;36.36;;
50417;SDS011;36346;48.280;14.292;2022-11-20T07:40:59;39.56;;;37.27;;
50417;SDS011;36346;48.280;14.292;2022-11-20T07:43:29;37.07;;;35.50;;
50417;SDS011;36346;48.280;14.292;2022-11-20T07:45:58;38.47;;;36.47;;
50417;SDS011;36346;48.280;14.292;2022-11-20T07:48:26;39.22;;;36.97;;
50417;SDS011;36346;48.280;14.292;2022-11-20T07:50:55;40.75;;;38.26;;
50417;SDS011;36346;48.280;14.292;2022-11-20T07:53:23;39.49;;;37.31;;
50417;SDS011;36346;48.280;14.292;2022-11-20T07:55:52;38.68;;;36.81;;
50417;SDS011;36346;48.280;14.292;2022-11-20T07:58:20;38.24;;;36.59;;
50417;SDS011;36346;48.280;14.292;2022-11-20T08:00:49;37.30;;;35.70;;
50417;SDS011;36346;48.280;14.292;2022-11-20T08:03:17;37.61;;;35.67;;
50417;SDS011;36346;48.280;14.292;2022-11-20T08:05:51;40.07;;;38.39;;
50417;SDS011;36346;48.280;14.292;2022-11-20T08:08:20;39.50;;;37.92;;
50417;SDS011;36346;48.280;14.292;2022-11-20T08:10:49;38.71;;;36.59;;
50417;SDS011;36346;48.280;14.292;2022-11-20T08:13:17;38.81;;;36.97;;
50417;SDS011;36346;48.280;14.292;2022-11-20T08:16:03;38.10;;;36.25;;
50417;SDS011;36346;48.280;14.292;2022-11-20T08:18:31;38.86;;;36.92;;
50417;SDS011;36346;48.280;14.292;2022-11-20T08:21:03;39.39;;;37.41;;
50417;SDS011;36346;48.280;14.292;2022-11-20T08:23:32;39.79;;;37.67;;
50417;SDS011;36346;48.280;14.292;2022-11-20T08:26:00;38.69;;;36.88;;
50417;SDS011;36346;48.280;14.292;2022-11-20T08:28:28;38.97;;;36.62;;
50417;SDS011;36346;48.280;14.292;2022-11-20T08:30:59;38.73;;;36.98;;
50417;SDS011;36346;48.280;14.292;2022-11-20T08:33:27;40.55;;;38.33;;
50417;SDS011;36346;48.280;14.292;2022-11-20T08:36:00;40.96;;;38.85;;
50417;SDS011;36346;48.280;14.292;2022-11-20T08:38:29;40.37;;;38.63;;
50417;SDS011;36346;48.280;14.292;2022-11-20T08:41:02;39.86;;;38.04;;
50417;SDS011;36346;48.280;14.292;2022-11-20T08:43:51;41.14;;;38.80;;
50417;SDS011;36346;48.280;14.292;2022-11-20T08:46:27;40.41;;;38.53;;
50417;SDS011;36346;48.280;14.292;2022-11-20T08:49:06;42.62;;;40.22;;
50417;SDS011;36346;48.280;14.292;2022-11-20T08:51:36;45.05;;;43.06;;
50417;SDS011;36346;48.280;14.292;2022-11-20T08:54:05;45.97;;;44.13;;
50417;SDS011;36346;48.280;14.292;2022-11-20T08:56:33;46.25;;;44.43;;
50417;SDS011;36346;48.280;14.292;2022-11-20T08:59:01;47.38;;;45.57;;
50417;SDS011;36346;48.280;14.292;2022-11-20T09:01:49;47.60;;;45.87;;
50417;SDS011;36346;48.280;14.292;2022-11-20T09:04:18;48.72;;;47.08;;
50417;SDS011;36346;48.280;14.292;2022-11-20T09:06:46;48.72;;;46.61;;
50417;SDS011;36346;48.280;14.292;2022-11-20T09:09:18;49.96;;;47.91;;
50417;SDS011;36346;48.280;14.292;2022-11-20T09:11:47;49.58;;;47.44;;
50417;SDS011;36346;48.280;14.292;2022-11-20T09:14:17;50.73;;;48.26;;
50417;SDS011;36346;48.280;14.292;2022-11-20T09:16:45;51.10;;;49.11;;
50417;SDS011;36346;48.280;14.292;2022-11-20T09:19:14;50.92;;;48.84;;
50417;SDS011;36346;48.280;14.292;2022-11-20T09:22:02;52.78;;;50.48;;
50417;SDS011;36346;48.280;14.292;2022-11-20T09:24:30;51.40;;;49.57;;
50417;SDS011;36346;48.280;14.292;2022-11-20T09:27:00;51.34;;;49.40;;
50417;SDS011;36346;48.280;14.292;2022-11-20T09:29:29;50.68;;;49.08;;
50417;SDS011;36346;48.280;14.292;2022-11-20T09:31:57;51.20;;;49.52;;
50417;SDS011;36346;48.280;14.292;2022-11-20T09:34:25;52.78;;;50.72;;
50417;SDS011;36346;48.280;14.292;2022-11-20T09:36:54;53.12;;;50.69;;
50417;SDS011;36346;48.280;14.292;2022-11-20T09:39:22;52.24;;;49.70;;
50417;SDS011;36346;48.280;14.292;2022-11-20T09:47:31;54.68;;;52.27;;
50417;SDS011;36346;48.280;14.292;2022-11-20T09:50:43;53.48;;;51.68;;
50417;SDS011;36346;48.280;14.292;2022-11-20T09:53:23;52.22;;;50.36;;
50417;SDS011;36346;48.280;14.292;2022-11-20T09:56:10;51.40;;;49.59;;
50417;SDS011;36346;48.280;14.292;2022-11-20T09:58:40;51.90;;;49.81;;
50417;SDS011;36346;48.280;14.292;2022-11-20T10:01:13;50.09;;;48.36;;
50417;SDS011;36346;48.280;14.292;2022-11-20T10:06:29;47.57;;;45.86;;
50417;SDS011;36346;48.280;14.292;2022-11-20T10:17:13;47.11;;;45.52;;
50417;SDS011;36346;48.280;14.292;2022-11-20T10:25:18;44.60;;;43.29;;
50417;SDS011;36346;48.280;14.292;2022-11-20T10:30:39;42.23;;;40.96;;
50417;SDS011;36346;48.280;14.292;2022-11-20T10:33:17;42.14;;;41.06;;
50417;SDS011;36346;48.280;14.292;2022-11-20T10:35:59;40.47;;;39.35;;
50417;SDS011;36346;48.280;14.292;2022-11-20T10:38:41;42.76;;;41.23;;
50417;SDS011;36346;48.280;14.292;2022-11-20T10:41:23;42.72;;;41.46;;
50417;SDS011;36346;48.280;14.292;2022-11-20T10:44:20;43.34;;;41.69;;
50417;SDS011;36346;48.280;14.292;2022-11-20T10:47:13;42.03;;;40.84;;
50417;SDS011;36346;48.280;14.292;2022-11-20T10:49:44;42.05;;;40.63;;
50417;SDS011;36346;48.280;14.292;2022-11-20T11:00:30;44.50;;;43.26;;
50417;SDS011;36346;48.280;14.292;2022-11-20T11:02:59;45.30;;;43.50;;
50417;SDS011;36346;48.280;14.292;2022-11-20T11:08:14;42.76;;;41.29;;
50417;SDS011;36346;48.280;14.292;2022-11-20T11:13:26;41.79;;;40.43;;
50417;SDS011;36346;48.280;14.292;2022-11-20T11:15:56;41.14;;;39.91;;
50417;SDS011;36346;48.280;14.292;2022-11-20T11:18:32;40.50;;;39.45;;
50417;SDS011;36346;48.280;14.292;2022-11-20T11:21:03;40.21;;;39.20;;
50417;SDS011;36346;48.280;14.292;2022-11-20T11:23:36;39.46;;;38.29;;
50417;SDS011;36346;48.280;14.292;2022-11-20T11:26:20;38.65;;;37.64;;
50417;SDS011;36346;48.280;14.292;2022-11-20T11:29:00;37.99;;;37.20;;
50417;SDS011;36346;48.280;14.292;2022-11-20T11:31:32;38.91;;;37.59;;
50417;SDS011;36346;48.280;14.292;2022-11-20T11:34:05;38.95;;;37.77;;
50417;SDS011;36346;48.280;14.292;2022-11-20T11:36:41;39.36;;;38.44;;
50417;SDS011;36346;48.280;14.292;2022-11-20T11:39:16;40.25;;;39.18;;
50417;SDS011;36346;48.280;14.292;2022-11-20T11:41:48;39.55;;;38.41;;
50417;SDS011;36346;48.280;14.292;2022-11-20T11:44:17;40.06;;;38.94;;
50417;SDS011;36346;48.280;14.292;2022-11-20T11:52:41;40.07;;;39.01;;
50417;SDS011;36346;48.280;14.292;2022-11-20T11:56:07;41.35;;;40.07;;
50417;SDS011;36346;48.280;14.292;2022-11-20T12:01:43;41.29;;;40.15;;
50417;SDS011;36346;48.280;14.292;2022-11-20T12:07:03;45.45;;;43.90;;
50417;SDS011;36346;48.280;14.292;2022-11-20T12:10:35;46.36;;;44.95;;
50417;SDS011;36346;48.280;14.292;2022-11-20T12:15:57;47.46;;;45.77;;
50417;SDS011;36346;48.280;14.292;2022-11-20T12:18:26;48.64;;;46.99;;
50417;SDS011;36346;48.280;14.292;2022-11-20T12:29:48;56.20;;;54.33;;
50417;SDS011;36346;48.280;14.292;2022-11-20T12:52:40;63.30;;;60.78;;
50417;SDS011;36346;48.280;14.292;2022-11-20T12:55:17;65.38;;;62.90;;
50417;SDS011;36346;48.280;14.292;2022-11-20T12:57:55;69.18;;;66.66;;
50417;SDS011;36346;48.280;14.292;2022-11-20T13:00:39;71.22;;;67.96;;
50417;SDS011;36346;48.280;14.292;2022-11-20T13:08:49;73.31;;;70.42;;
50417;SDS011;36346;48.280;14.292;2022-11-20T13:19:11;61.44;;;58.81;;
50417;SDS011;36346;48.280;14.292;2022-11-20T13:21:43;60.73;;;57.97;;
50417;SDS011;36346;48.280;14.292;2022-11-20T13:27:02;66.41;;;63.38;;
50417;SDS011;36346;48.280;14.292;2022-11-20T13:29:41;68.51;;;65.55;;
50417;SDS011;36346;48.280;14.292;2022-11-20T13:32:18;70.52;;;66.97;;
50417;SDS011;36346;48.280;14.292;2022-11-20T13:34:58;72.49;;;68.49;;
50417;SDS011;36346;48.280;14.292;2022-11-20T13:42:45;69.77;;;66.60;;
50417;SDS011;36346;48.280;14.292;2022-11-20T13:47:52;67.21;;;64.21;;
50417;SDS011;36346;48.280;14.292;2022-11-20T13:50:21;67.25;;;64.44;;
50417;SDS011;36346;48.280;14.292;2022-11-20T13:55:59;65.58;;;63.19;;
50417;SDS011;36346;48.280;14.292;2022-11-20T14:01:23;63.86;;;61.54;;
50417;SDS011;36346;48.280;14.292;2022-11-20T14:03:52;60.92;;;58.78;;
50417;SDS011;36346;48.280;14.292;2022-11-20T14:06:41;61.93;;;59.53;;
50417;SDS011;36346;48.280;14.292;2022-11-20T14:09:24;59.55;;;57.23;;
50417;SDS011;36346;48.280;14.292;2022-11-20T14:11:57;59.95;;;57.79;;
50417;SDS011;36346;48.280;14.292;2022-11-20T14:14:26;58.97;;;56.71;;
50417;SDS011;36346;48.280;14.292;2022-11-20T14:17:05;57.50;;;55.36;;
50417;SDS011;36346;48.280;14.292;2022-11-20T14:19:45;56.92;;;55.03;;
50417;SDS011;36346;48.280;14.292;2022-11-20T14:22:23;57.86;;;55.82;;
50417;SDS011;36346;48.280;14.292;2022-11-20T14:25:18;60.27;;;57.95;;
50417;SDS011;36346;48.280;14.292;2022-11-20T14:27:52;58.20;;;56.19;;
50417;SDS011;36346;48.280;14.292;2022-11-20T14:30:23;59.71;;;57.48;;
50417;SDS011;36346;48.280;14.292;2022-11-20T14:33:11;58.01;;;56.40;;
50417;SDS011;36346;48.280;14.292;2022-11-20T14:35:47;58.40;;;56.34;;
50417;SDS011;36346;48.280;14.292;2022-11-20T14:38:18;61.22;;;58.85;;
50417;SDS011;36346;48.280;14.292;2022-11-20T14:40:50;59.81;;;57.51;;
50417;SDS011;36346;48.280;14.292;2022-11-20T14:43:25;57.16;;;55.47;;
50417;SDS011;36346;48.280;14.292;2022-11-20T14:45:59;57.75;;;55.72;;
50417;SDS011;36346;48.280;14.292;2022-11-20T14:48:42;58.22;;;56.19;;
50417;SDS011;36346;48.280;14.292;2022-11-20T14:54:19;54.90;;;53.16;;
50417;SDS011;36346;48.280;14.292;2022-11-20T14:56:56;52.96;;;51.37;;
50417;SDS011;36346;48.280;14.292;2022-11-20T14:59:27;51.46;;;49.61;;
50417;SDS011;36346;48.280;14.292;2022-11-20T15:02:01;51.36;;;49.39;;
50417;SDS011;36346;48.280;14.292;2022-11-20T15:04:43;50.77;;;49.13;;
50417;SDS011;36346;48.280;14.292;2022-11-20T15:07:28;49.21;;;47.63;;
50417;SDS011;36346;48.280;14.292;2022-11-20T15:10:02;49.50;;;47.85;;
50417;SDS011;36346;48.280;14.292;2022-11-20T15:12:31;48.47;;;46.84;;
50417;SDS011;36346;48.280;14.292;2022-11-20T15:15:01;48.51;;;46.65;;
50417;SDS011;36346;48.280;14.292;2022-11-20T15:17:30;49.96;;;48.06;;
50417;SDS011;36346;48.280;14.292;2022-11-20T15:19:59;48.62;;;47.08;;
50417;SDS011;36346;48.280;14.292;2022-11-20T15:22:29;48.48;;;46.79;;
50417;SDS011;36346;48.280;14.292;2022-11-20T15:24:57;48.53;;;47.16;;
50417;SDS011;36346;48.280;14.292;2022-11-20T15:27:25;46.36;;;45.17;;
50417;SDS011;36346;48.280;14.292;2022-11-20T15:29:53;48.32;;;46.91;;
50417;SDS011;36346;48.280;14.292;2022-11-20T15:32:21;50.07;;;48.92;;
50417;SDS011;36346;48.280;14.292;2022-11-20T15:34:50;50.36;;;49.34;;
50417;SDS011;36346;48.280;14.292;2022-11-20T15:37:18;51.18;;;49.50;;
50417;SDS011;36346;48.280;14.292;2022-11-20T15:39:46;52.06;;;50.39;;
50417;SDS011;36346;48.280;14.292;2022-11-20T15:42:14;50.85;;;49.40;;
50417;SDS011;36346;48.280;14.292;2022-11-20T15:44:42;49.80;;;48.35;;
50417;SDS011;36346;48.280;14.292;2022-11-20T15:47:10;50.51;;;48.83;;
50417;SDS011;36346;48.280;14.292;2022-11-20T15:49:39;50.52;;;49.01;;
50417;SDS011;36346;48.280;14.292;2022-11-20T15:52:08;50.25;;;48.82;;
50417;SDS011;36346;48.280;14.292;2022-11-20T15:54:36;51.22;;;49.91;;
50417;SDS011;36346;48.280;14.292;2022-11-20T15:57:04;51.73;;;50.23;;
50417;SDS011;36346;48.280;14.292;2022-11-20T15:59:33;51.88;;;50.12;;
50417;SDS011;36346;48.280;14.292;2022-11-20T16:02:07;52.21;;;50.37;;
50417;SDS011;36346;48.280;14.292;2022-11-20T16:04:45;51.83;;;50.68;;
50417;SDS011;36346;48.280;14.292;2022-11-20T16:07:13;54.21;;;52.92;;
50417;SDS011;36346;48.280;14.292;2022-11-20T16:09:41;55.63;;;54.58;;
50417;SDS011;36346;48.280;14.292;2022-11-20T16:12:09;55.91;;;54.45;;
50417;SDS011;36346;48.280;14.292;2022-11-20T16:14:57;56.01;;;54.90;;
50417;SDS011;36346;48.280;14.292;2022-11-20T16:17:44;58.66;;;57.23;;
50417;SDS011;36346;48.280;14.292;2022-11-20T16:20:12;62.12;;;60.68;;
50417;SDS011;36346;48.280;14.292;2022-11-20T16:22:40;68.79;;;67.56;;
50417;SDS011;36346;48.280;14.292;2022-11-20T16:25:08;72.37;;;71.41;;
50417;SDS011;36346;48.280;14.292;2022-11-20T16:27:36;71.86;;;70.78;;
50417;SDS011;36346;48.280;14.292;2022-11-20T16:30:05;64.53;;;63.44;;
50417;SDS011;36346;48.280;14.292;2022-11-20T16:32:34;63.77;;;62.63;;
50417;SDS011;36346;48.280;14.292;2022-11-20T16:35:02;62.41;;;60.99;;
50417;SDS011;36346;48.280;14.292;2022-11-20T16:37:30;60.90;;;59.64;;